createdAt,value
2018-06-14T00:00:33.694Z,0.00
2018-06-14T00:01:33.630Z,0.00
2018-06-14T00:02:33.549Z,0.00
2018-06-14T00:03:33.477Z,0.00
2018-06-14T00:04:33.396Z,0.00
2018-06-14T00:05:33.328Z,0.00
2018-06-14T00:06:33.248Z,0.00
2018-06-14T00:07:33.184Z,0.00
2018-06-14T00:08:33.093Z,0.00
2018-06-14T00:09:33.027Z,0.00
2018-06-14T00:10:32.945Z,0.00
2018-06-14T00:11:32.881Z,0.00
2018-06-14T00:12:32.797Z,0.00
2018-06-14T00:13:32.732Z,0.00
2018-06-14T00:14:32.650Z,0.00
2018-06-14T00:15:32.588Z,0.00
2018-06-14T00:16:32.498Z,0.00
2018-06-14T00:17:32.431Z,0.00
2018-06-14T00:18:32.350Z,0.00
2018-06-14T00:19:32.283Z,0.00
2018-06-14T00:20:32.201Z,0.00
2018-06-14T00:21:32.133Z,0.00
2018-06-14T00:22:32.052Z,0.00
2018-06-14T00:23:31.987Z,0.00
2018-06-14T00:24:31.902Z,0.00
2018-06-14T00:25:31.836Z,0.00
2018-06-14T00:26:31.748Z,0.00
2018-06-14T00:27:31.684Z,0.00
2018-06-14T00:28:31.604Z,0.00
2018-06-14T00:29:31.537Z,0.00
2018-06-14T00:30:31.456Z,0.00
2018-06-14T00:31:31.384Z,0.00
2018-06-14T00:32:31.303Z,0.00
2018-06-14T00:33:31.235Z,0.00
2018-06-14T00:34:31.152Z,0.00
2018-06-14T00:35:31.084Z,0.00
2018-06-14T00:36:31.003Z,0.00
2018-06-14T00:37:30.935Z,0.00
2018-06-14T00:38:30.853Z,0.00
2018-06-14T00:39:30.785Z,0.00
2018-06-14T00:40:30.706Z,0.00
2018-06-14T00:41:30.653Z,0.00
2018-06-14T00:42:30.553Z,0.00
2018-06-14T00:43:30.492Z,0.00
2018-06-14T00:44:30.403Z,0.00
2018-06-14T00:45:30.338Z,0.00
2018-06-14T00:46:30.253Z,0.00
2018-06-14T00:47:30.186Z,0.00
2018-06-14T00:48:30.108Z,0.00
2018-06-14T00:49:30.039Z,0.00
2018-06-14T00:50:29.956Z,0.00
2018-06-14T00:51:29.893Z,0.00
2018-06-14T00:52:29.805Z,0.00
2018-06-14T00:53:29.738Z,0.00
2018-06-14T00:54:29.657Z,0.00
2018-06-14T00:55:29.590Z,0.00
2018-06-14T00:56:29.505Z,0.00
2018-06-14T00:57:29.442Z,0.00
2018-06-14T00:58:29.361Z,0.00
2018-06-14T00:59:29.290Z,0.00
2018-06-14T01:00:29.206Z,0.00
2018-06-14T01:01:29.143Z,0.00
2018-06-14T01:02:29.052Z,0.00
2018-06-14T01:03:28.992Z,0.00
2018-06-14T01:04:28.907Z,0.00
2018-06-14T01:05:28.840Z,0.00
2018-06-14T01:06:28.758Z,0.00
2018-06-14T01:07:28.690Z,0.00
2018-06-14T01:08:28.609Z,0.00
2018-06-14T01:09:28.546Z,0.00
2018-06-14T01:10:28.459Z,0.00
2018-06-14T01:11:28.392Z,0.00
2018-06-14T01:12:28.309Z,0.00
2018-06-14T01:13:28.244Z,0.00
2018-06-14T01:14:28.154Z,0.00
2018-06-14T01:15:28.094Z,0.00
2018-06-14T01:16:28.015Z,0.00
2018-06-14T01:17:27.947Z,0.00
2018-06-14T01:18:27.856Z,0.00
2018-06-14T01:19:27.793Z,0.00
2018-06-14T01:20:27.714Z,0.00
2018-06-14T01:21:27.646Z,0.00
2018-06-14T01:22:27.563Z,0.00
2018-06-14T01:23:27.499Z,0.00
2018-06-14T01:24:27.409Z,0.00
2018-06-14T01:25:27.341Z,0.00
2018-06-14T01:26:27.259Z,0.00
2018-06-14T01:27:27.191Z,0.00
2018-06-14T01:28:27.113Z,0.00
2018-06-14T01:29:27.048Z,0.00
2018-06-14T01:30:26.960Z,0.00
2018-06-14T01:31:26.898Z,0.00
2018-06-14T01:32:26.811Z,0.00
2018-06-14T01:33:26.742Z,0.00
2018-06-14T01:34:26.663Z,0.00
2018-06-14T01:35:26.597Z,0.00
2018-06-14T01:36:26.507Z,0.00
2018-06-14T01:37:26.442Z,0.00
2018-06-14T01:38:26.358Z,0.00
2018-06-14T01:39:26.301Z,0.00
2018-06-14T01:40:26.216Z,0.00
2018-06-14T01:41:26.144Z,0.00
2018-06-14T01:42:26.061Z,0.00
2018-06-14T01:43:25.991Z,0.00
2018-06-14T01:44:25.911Z,0.00
2018-06-14T01:45:25.844Z,0.00
2018-06-14T01:46:25.760Z,0.00
2018-06-14T01:47:25.694Z,0.00
2018-06-14T01:48:25.611Z,0.00
2018-06-14T01:49:25.544Z,0.00
2018-06-14T01:50:25.460Z,0.00
2018-06-14T01:51:25.397Z,0.00
2018-06-14T01:52:25.311Z,0.00
2018-06-14T01:53:25.246Z,0.00
2018-06-14T01:54:25.168Z,0.00
2018-06-14T01:55:25.092Z,0.00
2018-06-14T01:56:25.015Z,0.00
2018-06-14T01:57:24.944Z,0.00
2018-06-14T01:58:24.860Z,0.00
2018-06-14T01:59:24.799Z,0.00
2018-06-14T02:00:24.711Z,0.00
2018-06-14T02:01:24.657Z,0.00
2018-06-14T02:02:24.562Z,0.00
2018-06-14T02:03:24.493Z,0.00
2018-06-14T02:04:24.415Z,0.00
2018-06-14T02:05:24.345Z,0.00
2018-06-14T02:06:24.260Z,0.00
2018-06-14T02:07:24.191Z,0.00
2018-06-14T02:08:24.111Z,0.00
2018-06-14T02:09:24.047Z,0.00
2018-06-14T02:10:23.960Z,0.00
2018-06-14T02:11:23.893Z,0.00
2018-06-14T02:12:23.811Z,0.00
2018-06-14T02:13:23.749Z,0.00
2018-06-14T02:14:23.671Z,0.00
2018-06-14T02:15:23.593Z,0.00
2018-06-14T02:16:23.511Z,0.00
2018-06-14T02:17:23.448Z,0.00
2018-06-14T02:18:23.360Z,0.00
2018-06-14T02:19:23.292Z,0.00
2018-06-14T02:20:23.204Z,0.00
2018-06-14T02:21:23.148Z,0.00
2018-06-14T02:22:23.061Z,0.00
2018-06-14T02:23:22.995Z,0.00
2018-06-14T02:24:22.918Z,0.00
2018-06-14T02:25:22.851Z,0.00
2018-06-14T02:26:22.760Z,0.00
2018-06-14T02:27:22.693Z,0.00
2018-06-14T02:28:22.609Z,0.00
2018-06-14T02:29:22.543Z,0.00
2018-06-14T02:30:22.464Z,0.00
2018-06-14T02:31:22.394Z,0.00
2018-06-14T02:32:22.311Z,0.00
2018-06-14T02:33:22.244Z,0.00
2018-06-14T02:34:22.161Z,0.00
2018-06-14T02:35:22.100Z,0.00
2018-06-14T02:36:22.015Z,0.00
2018-06-14T02:37:21.942Z,0.00
2018-06-14T02:38:21.860Z,0.00
2018-06-14T02:39:21.795Z,0.00
2018-06-14T02:40:21.711Z,0.00
2018-06-14T02:41:21.645Z,0.00
2018-06-14T02:42:21.561Z,0.00
2018-06-14T02:43:21.491Z,0.00
2018-06-14T02:44:21.408Z,0.00
2018-06-14T02:45:21.348Z,0.00
2018-06-14T02:46:21.262Z,0.00
2018-06-14T02:47:21.186Z,0.00
2018-06-14T02:48:21.109Z,0.00
2018-06-14T02:49:21.045Z,0.00
2018-06-14T02:50:20.959Z,0.00
2018-06-14T02:51:20.893Z,0.00
2018-06-14T02:52:20.804Z,0.00
2018-06-14T02:53:20.785Z,0.00
2018-06-14T02:54:20.660Z,0.00
2018-06-14T02:55:20.694Z,0.00
2018-06-14T02:56:20.506Z,0.00
2018-06-14T02:57:20.445Z,0.00
2018-06-14T02:58:20.357Z,0.00
2018-06-14T02:59:20.311Z,0.00
2018-06-14T03:00:20.212Z,0.00
2018-06-14T03:01:20.143Z,0.00
2018-06-14T03:02:20.061Z,0.00
2018-06-14T03:03:20.032Z,0.00
2018-06-14T03:04:19.903Z,0.00
2018-06-14T03:05:19.838Z,0.00
2018-06-14T03:06:19.758Z,0.00
2018-06-14T03:07:19.751Z,0.00
2018-06-14T03:08:19.614Z,0.00
2018-06-14T03:09:19.559Z,0.00
2018-06-14T03:10:19.458Z,0.00
2018-06-14T03:11:19.389Z,0.00
2018-06-14T03:12:19.306Z,0.00
2018-06-14T03:13:19.281Z,0.00
2018-06-14T03:14:19.155Z,0.00
2018-06-14T03:15:19.190Z,0.00
2018-06-14T03:16:19.007Z,0.00
2018-06-14T03:17:18.939Z,0.00
2018-06-14T03:18:18.858Z,0.00
2018-06-14T03:19:18.786Z,0.00
2018-06-14T03:20:18.708Z,0.00
2018-06-14T03:21:18.638Z,0.00
2018-06-14T03:22:18.555Z,0.00
2018-06-14T03:23:18.503Z,0.00
2018-06-14T03:24:18.405Z,0.00
2018-06-14T03:25:18.437Z,0.00
2018-06-14T03:26:18.252Z,0.00
2018-06-14T03:27:18.245Z,0.00
2018-06-14T03:28:18.105Z,0.00
2018-06-14T03:29:18.034Z,0.00
2018-06-14T03:30:17.953Z,0.00
2018-06-14T03:31:17.886Z,0.00
2018-06-14T03:32:17.810Z,0.00
2018-06-14T03:33:17.738Z,0.00
2018-06-14T03:34:17.651Z,0.00
2018-06-14T03:35:17.584Z,0.00
2018-06-14T03:36:17.512Z,0.00
2018-06-14T03:37:17.439Z,0.00
2018-06-14T03:38:17.355Z,0.00
2018-06-14T03:39:17.284Z,0.00
2018-06-14T03:40:17.197Z,0.00
2018-06-14T03:41:17.130Z,0.00
2018-06-14T03:42:17.058Z,0.00
2018-06-14T03:43:16.977Z,0.00
2018-06-14T03:44:16.906Z,0.00
2018-06-14T03:45:16.826Z,0.00
2018-06-14T03:46:16.758Z,0.00
2018-06-14T03:47:16.678Z,0.00
2018-06-14T03:48:16.610Z,0.00
2018-06-14T03:49:16.521Z,0.00
2018-06-14T03:50:16.460Z,0.00
2018-06-14T03:51:16.372Z,0.00
2018-06-14T03:52:16.309Z,0.00
2018-06-14T03:53:16.222Z,0.00
2018-06-14T03:54:16.171Z,0.00
2018-06-14T03:55:16.073Z,0.00
2018-06-14T03:56:16.086Z,0.00
2018-06-14T03:57:15.927Z,0.00
2018-06-14T03:58:15.893Z,0.00
2018-06-14T03:59:15.772Z,0.00
2018-06-14T04:00:15.802Z,0.00
2018-06-14T04:01:15.623Z,0.00
2018-06-14T04:02:15.613Z,0.00
2018-06-14T04:03:15.470Z,0.00
2018-06-14T04:04:15.431Z,0.00
2018-06-14T04:05:15.324Z,0.00
2018-06-14T04:06:15.331Z,0.00
2018-06-14T04:07:15.167Z,0.00
2018-06-14T04:08:15.143Z,0.00
2018-06-14T04:09:15.026Z,0.00
2018-06-14T04:10:15.062Z,0.00
2018-06-14T04:11:14.872Z,5.63
2018-06-14T04:12:14.857Z,5.63
2018-06-14T04:13:14.720Z,5.63
2018-06-14T04:14:14.655Z,5.63
2018-06-14T04:15:14.569Z,5.63
2018-06-14T04:16:14.504Z,5.63
2018-06-14T04:17:14.416Z,5.63
2018-06-14T04:18:14.358Z,5.63
2018-06-14T04:19:14.269Z,5.63
2018-06-14T04:20:14.200Z,5.63
2018-06-14T04:21:14.119Z,5.63
2018-06-14T04:22:14.050Z,5.63
2018-06-14T04:23:13.966Z,5.63
2018-06-14T04:24:13.903Z,5.63
2018-06-14T04:25:13.816Z,5.63
2018-06-14T04:26:13.749Z,5.63
2018-06-14T04:27:13.667Z,5.63
2018-06-14T04:28:13.599Z,5.63
2018-06-14T04:29:13.517Z,5.63
2018-06-14T04:30:13.448Z,5.63
2018-06-14T04:31:13.369Z,5.63
2018-06-14T04:32:13.299Z,5.63
2018-06-14T04:33:13.214Z,5.63
2018-06-14T04:34:13.162Z,5.63
2018-06-14T04:35:13.067Z,5.63
2018-06-14T04:36:12.998Z,5.63
2018-06-14T04:37:12.912Z,5.63
2018-06-14T04:38:12.884Z,5.63
2018-06-14T04:39:12.765Z,5.63
2018-06-14T04:40:12.702Z,5.63
2018-06-14T04:41:12.618Z,5.63
2018-06-14T04:42:12.548Z,5.63
2018-06-14T04:43:12.463Z,5.63
2018-06-14T04:44:12.410Z,5.63
2018-06-14T04:45:12.319Z,5.63
2018-06-14T04:46:12.322Z,5.63
2018-06-14T04:47:12.161Z,5.63
2018-06-14T04:48:12.130Z,5.63
2018-06-14T04:49:12.013Z,5.63
2018-06-14T04:50:12.040Z,5.63
2018-06-14T04:51:11.867Z,11.25
2018-06-14T04:52:11.852Z,11.25
2018-06-14T04:53:11.712Z,11.25
2018-06-14T04:54:11.656Z,11.25
2018-06-14T04:55:11.563Z,11.25
2018-06-14T04:56:11.567Z,11.25
2018-06-14T04:57:11.414Z,11.25
2018-06-14T04:58:11.380Z,11.25
2018-06-14T04:59:11.263Z,11.25
2018-06-14T05:00:11.197Z,11.25
2018-06-14T05:01:11.116Z,11.25
2018-06-14T05:02:11.054Z,11.25
2018-06-14T05:03:10.961Z,11.25
2018-06-14T05:04:10.899Z,11.25
2018-06-14T05:05:10.818Z,11.25
2018-06-14T05:06:10.743Z,11.25
2018-06-14T05:07:10.663Z,11.25
2018-06-14T05:08:10.596Z,11.25
2018-06-14T05:09:10.514Z,16.88
2018-06-14T05:10:10.447Z,16.88
2018-06-14T05:11:10.366Z,16.88
2018-06-14T05:12:10.299Z,16.88
2018-06-14T05:13:10.216Z,16.88
2018-06-14T05:14:10.147Z,16.88
2018-06-14T05:15:10.063Z,16.88
2018-06-14T05:16:09.998Z,16.88
2018-06-14T05:17:09.923Z,16.88
2018-06-14T05:18:09.945Z,16.88
2018-06-14T05:19:09.762Z,16.88
2018-06-14T05:20:09.784Z,16.88
2018-06-14T05:21:09.614Z,16.88
2018-06-14T05:22:09.546Z,16.88
2018-06-14T05:23:09.462Z,16.88
2018-06-14T05:24:09.505Z,16.88
2018-06-14T05:25:09.319Z,22.50
2018-06-14T05:26:09.310Z,22.50
2018-06-14T05:27:09.164Z,22.50
2018-06-14T05:28:09.120Z,22.50
2018-06-14T05:29:09.017Z,22.50
2018-06-14T05:30:09.033Z,22.50
2018-06-14T05:31:08.864Z,22.50
2018-06-14T05:32:08.840Z,22.50
2018-06-14T05:33:08.718Z,22.50
2018-06-14T05:34:08.750Z,22.50
2018-06-14T05:35:08.561Z,22.50
2018-06-14T05:36:08.560Z,22.50
2018-06-14T05:37:08.418Z,28.13
2018-06-14T05:38:08.370Z,28.13
2018-06-14T05:39:08.264Z,28.13
2018-06-14T05:40:08.195Z,28.13
2018-06-14T05:41:08.179Z,28.13
2018-06-14T05:42:08.075Z,28.13
2018-06-14T05:43:07.991Z,28.13
2018-06-14T05:44:07.893Z,28.13
2018-06-14T05:45:07.820Z,28.13
2018-06-14T05:46:07.742Z,28.13
2018-06-14T05:47:07.710Z,28.13
2018-06-14T05:48:07.590Z,33.75
2018-06-14T05:49:07.620Z,33.75
2018-06-14T05:50:07.443Z,33.75
2018-06-14T05:51:07.444Z,33.75
2018-06-14T05:52:07.293Z,33.75
2018-06-14T05:53:07.246Z,33.75
2018-06-14T05:54:07.145Z,33.75
2018-06-14T05:55:07.152Z,39.38
2018-06-14T05:56:07.012Z,39.38
2018-06-14T05:57:06.960Z,39.38
2018-06-14T05:58:06.849Z,39.38
2018-06-14T05:59:06.876Z,39.38
2018-06-14T06:00:06.696Z,39.38
2018-06-14T06:01:06.678Z,39.38
2018-06-14T06:02:06.550Z,39.38
2018-06-14T06:03:06.589Z,39.38
2018-06-14T06:04:06.402Z,39.38
2018-06-14T06:05:06.396Z,39.38
2018-06-14T06:06:06.251Z,39.38
2018-06-14T06:07:06.207Z,45.00
2018-06-14T06:08:06.102Z,45.00
2018-06-14T06:09:06.115Z,45.00
2018-06-14T06:10:05.949Z,45.00
2018-06-14T06:11:05.929Z,45.00
2018-06-14T06:12:05.801Z,45.00
2018-06-14T06:13:05.837Z,45.00
2018-06-14T06:14:05.651Z,45.00
2018-06-14T06:15:05.643Z,45.00
2018-06-14T06:16:05.503Z,50.63
2018-06-14T06:17:05.452Z,50.63
2018-06-14T06:18:05.351Z,50.63
2018-06-14T06:19:05.364Z,50.63
2018-06-14T06:20:05.205Z,50.63
2018-06-14T06:21:05.171Z,50.63
2018-06-14T06:22:05.057Z,50.63
2018-06-14T06:23:05.089Z,56.25
2018-06-14T06:24:04.907Z,56.25
2018-06-14T06:25:04.889Z,50.63
2018-06-14T06:26:04.815Z,50.63
2018-06-14T06:27:04.693Z,50.63
2018-06-14T06:28:04.612Z,50.63
2018-06-14T06:29:04.607Z,50.63
2018-06-14T06:30:04.460Z,50.63
2018-06-14T06:31:04.416Z,50.63
2018-06-14T06:32:04.310Z,50.63
2018-06-14T06:33:04.328Z,50.63
2018-06-14T06:34:04.165Z,50.63
2018-06-14T06:35:04.141Z,50.63
2018-06-14T06:36:04.020Z,50.63
2018-06-14T06:37:04.052Z,50.63
2018-06-14T06:38:03.869Z,56.25
2018-06-14T06:39:03.855Z,56.25
2018-06-14T06:40:03.717Z,56.25
2018-06-14T06:41:03.663Z,56.25
2018-06-14T06:42:03.574Z,56.25
2018-06-14T06:43:03.576Z,56.25
2018-06-14T06:44:03.424Z,56.25
2018-06-14T06:45:03.430Z,56.25
2018-06-14T06:46:03.276Z,56.25
2018-06-14T06:47:03.295Z,56.25
2018-06-14T06:48:03.129Z,56.25
2018-06-14T06:49:03.104Z,56.25
2018-06-14T06:50:02.978Z,56.25
2018-06-14T06:51:03.019Z,56.25
2018-06-14T06:52:02.831Z,56.25
2018-06-14T06:53:02.838Z,61.88
2018-06-14T06:54:02.684Z,61.88
2018-06-14T06:55:02.633Z,61.88
2018-06-14T06:56:02.540Z,61.88
2018-06-14T06:57:02.543Z,61.88
2018-06-14T06:58:02.386Z,61.88
2018-06-14T06:59:02.353Z,61.88
2018-06-14T07:00:02.241Z,61.88
2018-06-14T07:01:02.264Z,61.88
2018-06-14T07:02:02.097Z,61.88
2018-06-14T07:03:02.074Z,61.88
2018-06-14T07:04:01.948Z,61.88
2018-06-14T07:05:01.991Z,56.25
2018-06-14T07:06:01.824Z,56.25
2018-06-14T07:07:01.792Z,56.25
2018-06-14T07:08:01.656Z,56.25
2018-06-14T07:09:01.608Z,56.25
2018-06-14T07:10:01.504Z,56.25
2018-06-14T07:11:01.510Z,61.88
2018-06-14T07:12:01.388Z,61.88
2018-06-14T07:13:01.321Z,61.88
2018-06-14T07:14:01.210Z,61.88
2018-06-14T07:15:01.228Z,61.88
2018-06-14T07:16:01.061Z,61.88
2018-06-14T07:17:01.040Z,61.88
2018-06-14T07:18:00.911Z,67.50
2018-06-14T07:19:00.948Z,67.50
2018-06-14T07:20:00.765Z,67.50
2018-06-14T07:21:00.759Z,73.13
2018-06-14T07:22:00.674Z,84.38
2018-06-14T07:23:00.566Z,73.13
2018-06-14T07:24:00.479Z,73.13
2018-06-14T07:25:00.405Z,73.13
2018-06-14T07:26:00.333Z,73.13
2018-06-14T07:27:00.285Z,73.13
2018-06-14T07:28:00.178Z,73.13
2018-06-14T07:29:00.198Z,73.13
2018-06-14T07:30:00.044Z,73.13
2018-06-14T07:31:00.011Z,73.13
2018-06-14T07:31:59.884Z,73.13
2018-06-14T07:32:59.914Z,73.13
2018-06-14T07:33:59.736Z,67.50
2018-06-14T07:34:59.723Z,67.50
2018-06-14T07:35:59.590Z,67.50
2018-06-14T07:36:59.535Z,67.50
2018-06-14T07:37:59.443Z,67.50
2018-06-14T07:38:59.445Z,67.50
2018-06-14T07:39:59.294Z,67.50
2018-06-14T07:40:59.254Z,67.50
2018-06-14T07:41:59.152Z,67.50
2018-06-14T07:42:59.173Z,67.50
2018-06-14T07:43:59.003Z,61.88
2018-06-14T07:44:58.940Z,61.88
2018-06-14T07:45:58.856Z,61.88
2018-06-14T07:46:58.789Z,61.88
2018-06-14T07:47:58.710Z,61.88
2018-06-14T07:48:58.651Z,61.88
2018-06-14T07:49:58.560Z,56.25
2018-06-14T07:50:58.498Z,56.25
2018-06-14T07:51:58.418Z,56.25
2018-06-14T07:52:58.357Z,56.25
2018-06-14T07:53:58.270Z,56.25
2018-06-14T07:54:58.205Z,56.25
2018-06-14T07:55:58.124Z,56.25
2018-06-14T07:56:58.063Z,56.25
2018-06-14T07:57:57.975Z,56.25
2018-06-14T07:58:57.911Z,50.63
2018-06-14T07:59:57.837Z,50.63
2018-06-14T08:00:57.767Z,50.63
2018-06-14T08:01:57.687Z,50.63
2018-06-14T08:02:57.617Z,50.63
2018-06-14T08:03:57.540Z,50.63
2018-06-14T08:04:57.475Z,50.63
2018-06-14T08:05:57.394Z,45.00
2018-06-14T08:06:57.328Z,45.00
2018-06-14T08:07:57.249Z,45.00
2018-06-14T08:08:57.190Z,45.00
2018-06-14T08:09:57.097Z,45.00
2018-06-14T08:10:57.038Z,45.00
2018-06-14T08:11:56.958Z,45.00
2018-06-14T08:12:56.890Z,39.38
2018-06-14T08:13:56.806Z,39.38
2018-06-14T08:14:56.741Z,39.38
2018-06-14T08:15:56.669Z,39.38
2018-06-14T08:16:56.603Z,39.38
2018-06-14T08:17:56.516Z,39.38
2018-06-14T08:18:56.453Z,39.38
2018-06-14T08:19:56.371Z,39.38
2018-06-14T08:20:56.305Z,39.38
2018-06-14T08:21:56.222Z,39.38
2018-06-14T08:22:56.158Z,39.38
2018-06-14T08:23:56.078Z,39.38
2018-06-14T08:24:56.013Z,39.38
2018-06-14T08:25:55.929Z,39.38
2018-06-14T08:26:55.869Z,39.38
2018-06-14T08:27:55.793Z,39.38
2018-06-14T08:28:55.722Z,39.38
2018-06-14T08:29:55.642Z,39.38
2018-06-14T08:30:55.572Z,39.38
2018-06-14T08:31:55.495Z,39.38
2018-06-14T08:32:55.428Z,39.38
2018-06-14T08:33:55.347Z,39.38
2018-06-14T08:34:55.280Z,39.38
2018-06-14T08:35:55.197Z,39.38
2018-06-14T08:36:55.132Z,39.38
2018-06-14T08:37:55.058Z,39.38
2018-06-14T08:38:54.997Z,39.38
2018-06-14T08:39:54.921Z,39.38
2018-06-14T08:40:54.846Z,39.38
2018-06-14T08:41:54.764Z,39.38
2018-06-14T08:42:54.698Z,39.38
2018-06-14T08:43:54.618Z,39.38
2018-06-14T08:44:54.595Z,39.38
2018-06-14T08:45:54.472Z,39.38
2018-06-14T08:46:54.409Z,39.38
2018-06-14T08:47:54.327Z,39.38
2018-06-14T08:48:54.262Z,39.38
2018-06-14T08:49:54.178Z,39.38
2018-06-14T08:50:54.114Z,39.38
2018-06-14T08:51:54.032Z,39.38
2018-06-14T08:52:53.967Z,39.38
2018-06-14T08:53:53.881Z,39.38
2018-06-14T08:54:53.819Z,39.38
2018-06-14T08:55:53.742Z,39.38
2018-06-14T08:56:53.673Z,45.00
2018-06-14T08:57:53.594Z,45.00
2018-06-14T08:58:53.531Z,45.00
2018-06-14T08:59:53.448Z,45.00
2018-06-14T09:00:53.380Z,45.00
2018-06-14T09:01:53.304Z,45.00
2018-06-14T09:02:53.237Z,45.00
2018-06-14T09:03:53.154Z,45.00
2018-06-14T09:04:53.095Z,45.00
2018-06-14T09:05:53.014Z,45.00
2018-06-14T09:06:52.945Z,45.00
2018-06-14T09:07:52.866Z,45.00
2018-06-14T09:08:52.796Z,50.63
2018-06-14T09:09:52.718Z,50.63
2018-06-14T09:10:52.661Z,50.63
2018-06-14T09:11:52.617Z,50.63
2018-06-14T09:12:52.508Z,50.63
2018-06-14T09:13:52.426Z,50.63
2018-06-14T09:14:52.368Z,50.63
2018-06-14T09:15:52.278Z,50.63
2018-06-14T09:16:52.215Z,50.63
2018-06-14T09:17:52.136Z,56.25
2018-06-14T09:18:52.070Z,56.25
2018-06-14T09:19:51.988Z,56.25
2018-06-14T09:20:51.928Z,56.25
2018-06-14T09:21:51.844Z,56.25
2018-06-14T09:22:51.778Z,56.25
2018-06-14T09:23:51.704Z,56.25
2018-06-14T09:24:51.634Z,56.25
2018-06-14T09:25:51.554Z,56.25
2018-06-14T09:26:51.487Z,56.25
2018-06-14T09:27:51.406Z,56.25
2018-06-14T09:28:51.338Z,56.25
2018-06-14T09:29:51.319Z,56.25
2018-06-14T09:30:51.197Z,56.25
2018-06-14T09:31:51.113Z,56.25
2018-06-14T09:32:51.051Z,56.25
2018-06-14T09:33:50.971Z,56.25
2018-06-14T09:34:50.908Z,56.25
2018-06-14T09:35:50.843Z,56.25
2018-06-14T09:36:50.759Z,56.25
2018-06-14T09:37:50.675Z,56.25
2018-06-14T09:38:50.614Z,56.25
2018-06-14T09:39:50.542Z,56.25
2018-06-14T09:40:50.470Z,56.25
2018-06-14T09:41:50.390Z,61.88
2018-06-14T09:42:50.335Z,61.88
2018-06-14T09:43:50.246Z,61.88
2018-06-14T09:44:50.177Z,61.88
2018-06-14T09:45:50.095Z,61.88
2018-06-14T09:46:50.030Z,61.88
2018-06-14T09:47:49.952Z,61.88
2018-06-14T09:48:49.884Z,67.50
2018-06-14T09:49:49.804Z,67.50
2018-06-14T09:50:49.742Z,67.50
2018-06-14T09:51:49.662Z,67.50
2018-06-14T09:52:49.598Z,73.13
2018-06-14T09:53:49.514Z,73.13
2018-06-14T09:54:49.451Z,73.13
2018-06-14T09:55:49.367Z,73.13
2018-06-14T09:56:49.307Z,73.13
2018-06-14T09:57:49.224Z,78.75
2018-06-14T09:58:49.157Z,78.75
2018-06-14T09:59:49.079Z,78.75
2018-06-14T10:00:49.016Z,78.75
2018-06-14T10:01:48.935Z,84.38
2018-06-14T10:02:48.868Z,84.38
2018-06-14T10:03:48.790Z,84.38
2018-06-14T10:04:48.724Z,90.00
2018-06-14T10:05:48.645Z,90.00
2018-06-14T10:06:48.578Z,90.00
2018-06-14T10:07:48.498Z,90.00
2018-06-14T10:08:48.438Z,90.00
2018-06-14T10:09:48.357Z,90.00
2018-06-14T10:10:48.283Z,90.00
2018-06-14T10:11:48.212Z,90.00
2018-06-14T10:12:48.154Z,95.63
2018-06-14T10:13:48.061Z,95.63
2018-06-14T10:14:47.996Z,95.63
2018-06-14T10:15:47.921Z,95.63
2018-06-14T10:16:47.866Z,95.63
2018-06-14T10:17:47.773Z,101.25
2018-06-14T10:18:47.721Z,101.25
2018-06-14T10:19:47.633Z,101.25
2018-06-14T10:20:47.562Z,95.63
2018-06-14T10:21:47.499Z,95.63
2018-06-14T10:22:47.421Z,95.63
2018-06-14T10:23:47.343Z,95.63
2018-06-14T10:24:47.275Z,101.25
2018-06-14T10:25:47.196Z,101.25
2018-06-14T10:26:47.134Z,101.25
2018-06-14T10:27:47.051Z,101.25
2018-06-14T10:28:46.986Z,101.25
2018-06-14T10:29:46.904Z,106.88
2018-06-14T10:30:46.841Z,106.88
2018-06-14T10:31:46.759Z,106.88
2018-06-14T10:32:46.699Z,112.50
2018-06-14T10:33:46.620Z,112.50
2018-06-14T10:34:46.555Z,118.13
2018-06-14T10:35:46.476Z,118.13
2018-06-14T10:36:46.414Z,118.13
2018-06-14T10:37:46.328Z,123.75
2018-06-14T10:38:46.265Z,123.75
2018-06-14T10:39:46.186Z,123.75
2018-06-14T10:40:46.122Z,123.75
2018-06-14T10:41:46.046Z,123.75
2018-06-14T10:42:45.979Z,123.75
2018-06-14T10:43:45.900Z,123.75
2018-06-14T10:44:45.838Z,123.75
2018-06-14T10:45:45.754Z,123.75
2018-06-14T10:46:45.691Z,123.75
2018-06-14T10:47:45.611Z,123.75
2018-06-14T10:48:45.550Z,123.75
2018-06-14T10:49:45.467Z,129.38
2018-06-14T10:50:45.428Z,129.38
2018-06-14T10:51:45.329Z,129.38
2018-06-14T10:52:45.267Z,123.75
2018-06-14T10:53:45.182Z,123.75
2018-06-14T10:54:45.121Z,123.75
2018-06-14T10:55:45.041Z,129.38
2018-06-14T10:56:44.975Z,123.75
2018-06-14T10:57:44.899Z,123.75
2018-06-14T10:58:44.832Z,118.13
2018-06-14T10:59:44.755Z,129.38
2018-06-14T11:00:44.705Z,118.13
2018-06-14T11:01:44.610Z,118.13
2018-06-14T11:02:44.627Z,118.13
2018-06-14T11:03:44.467Z,112.50
2018-06-14T11:04:44.422Z,106.88
2018-06-14T11:05:44.320Z,106.88
2018-06-14T11:06:44.335Z,101.25
2018-06-14T11:07:44.182Z,101.25
2018-06-14T11:08:44.110Z,95.63
2018-06-14T11:09:44.039Z,95.63
2018-06-14T11:10:44.058Z,90.00
2018-06-14T11:11:43.894Z,90.00
2018-06-14T11:12:43.830Z,84.38
2018-06-14T11:13:43.870Z,84.38
2018-06-14T11:14:43.690Z,84.38
2018-06-14T11:15:43.784Z,78.75
2018-06-14T11:16:43.540Z,78.75
2018-06-14T11:17:43.595Z,78.75
2018-06-14T11:18:43.398Z,78.75
2018-06-14T11:19:43.507Z,73.13
2018-06-14T11:20:43.257Z,73.13
2018-06-14T11:21:43.314Z,73.13
2018-06-14T11:22:43.117Z,73.13
2018-06-14T11:23:43.225Z,73.13
2018-06-14T11:24:42.971Z,73.13
2018-06-14T11:25:42.932Z,73.13
2018-06-14T11:26:42.829Z,73.13
2018-06-14T11:27:42.843Z,73.13
2018-06-14T11:28:42.688Z,73.13
2018-06-14T11:29:42.764Z,73.13
2018-06-14T11:30:42.539Z,73.13
2018-06-14T11:31:42.669Z,73.13
2018-06-14T11:32:42.401Z,73.13
2018-06-14T11:33:42.476Z,78.75
2018-06-14T11:34:42.260Z,78.75
2018-06-14T11:35:42.390Z,78.75
2018-06-14T11:36:42.116Z,78.75
2018-06-14T11:37:42.198Z,84.38
2018-06-14T11:38:41.973Z,84.38
2018-06-14T11:39:42.127Z,84.38
2018-06-14T11:40:41.832Z,84.38
2018-06-14T11:41:41.917Z,90.00
2018-06-14T11:42:41.688Z,90.00
2018-06-14T11:43:41.827Z,90.00
2018-06-14T11:44:41.546Z,90.00
2018-06-14T11:45:41.640Z,90.00
2018-06-14T11:46:41.404Z,95.63
2018-06-14T11:47:41.555Z,95.63
2018-06-14T11:48:41.265Z,101.25
2018-06-14T11:49:45.966Z,101.25
2018-06-14T11:50:41.123Z,106.88
2018-06-14T11:51:41.166Z,112.50
2018-06-14T11:52:40.980Z,112.50
2018-06-14T11:53:42.106Z,112.50
2018-06-14T11:54:40.835Z,118.13
2018-06-14T11:55:40.762Z,118.13
2018-06-14T11:56:40.693Z,123.75
2018-06-14T11:57:40.798Z,123.75
2018-06-14T11:58:40.557Z,123.75
2018-06-14T11:59:40.608Z,129.38
2018-06-14T12:00:40.410Z,123.75
2018-06-14T12:01:40.532Z,123.75
2018-06-14T12:02:40.267Z,129.38
2018-06-14T12:03:40.328Z,129.38
2018-06-14T12:04:40.127Z,129.38
2018-06-14T12:05:40.245Z,129.38
2018-06-14T12:06:39.986Z,135.00
2018-06-14T12:07:40.048Z,146.25
2018-06-14T12:08:39.845Z,151.88
2018-06-14T12:09:39.959Z,163.13
2018-06-14T12:10:39.700Z,157.50
2018-06-14T12:11:39.767Z,157.50
2018-06-14T12:12:39.559Z,151.88
2018-06-14T12:13:39.684Z,151.88
2018-06-14T12:14:39.419Z,219.38
2018-06-14T12:15:39.356Z,247.50
2018-06-14T12:16:39.494Z,174.38
2018-06-14T12:17:39.205Z,157.50
2018-06-14T12:18:39.302Z,135.00
2018-06-14T12:19:39.065Z,129.38
2018-06-14T12:20:39.219Z,118.13
2018-06-14T12:21:38.929Z,112.50
2018-06-14T12:22:38.921Z,129.38
2018-06-14T12:23:38.788Z,101.25
2018-06-14T12:24:38.937Z,95.63
2018-06-14T12:25:38.645Z,95.63
2018-06-14T12:26:38.744Z,90.00
2018-06-14T12:27:38.509Z,90.00
2018-06-14T12:28:38.657Z,84.38
2018-06-14T12:29:38.363Z,84.38
2018-06-14T12:30:38.466Z,84.38
2018-06-14T12:31:38.233Z,84.38
2018-06-14T12:32:38.376Z,90.00
2018-06-14T12:33:38.083Z,129.38
2018-06-14T12:34:38.189Z,84.38
2018-06-14T12:35:37.946Z,84.38
2018-06-14T12:36:38.145Z,84.38
2018-06-14T12:37:37.810Z,84.38
2018-06-14T12:38:37.907Z,84.38
2018-06-14T12:39:37.659Z,84.38
2018-06-14T12:40:37.819Z,84.38
2018-06-14T12:41:37.522Z,84.38
2018-06-14T12:42:37.630Z,84.38
2018-06-14T12:43:37.377Z,84.38
2018-06-14T12:44:37.542Z,84.38
2018-06-14T12:45:37.240Z,84.38
2018-06-14T12:46:37.348Z,84.38
2018-06-14T12:47:37.098Z,90.00
2018-06-14T12:48:37.158Z,90.00
2018-06-14T12:49:36.958Z,90.00
2018-06-14T12:50:36.968Z,90.00
2018-06-14T12:51:36.829Z,90.00
2018-06-14T12:52:36.879Z,90.00
2018-06-14T12:53:36.679Z,90.00
2018-06-14T12:54:36.605Z,90.00
2018-06-14T12:55:36.589Z,90.00
2018-06-14T12:56:36.473Z,90.00
2018-06-14T12:57:36.499Z,90.00
2018-06-14T12:58:36.370Z,95.63